AQQ9 IFIS: Internet Flight Information System
logo dgac
Martes 07 de Febrero del 2023
Buscar por aerodromo o helipuerto
Ingrese nombre de aeródromo, localidad o designador OACI:
METAR del 07-02-2023 a las 19:00 UTC
Para mayor información visite www.meteochile.cl
METAR SCAS 071900Z 25014KT 9999 FEW020 BKN060 19/14 Q1015
Viento: dirección 250 grados, velocidad 14 nudos
Visibilidad: 10 km o más
Nubes: Escasa nubosidad a 2000 pies sobre el nivel del aeródromo
Nubes: Nublado a 6000 pies sobre el nivel del aeródromo
Temperatura: 19 °C
Rocío: 14 °C
Humedad_relativa: 73%
Presión: 1015 hPa
METAR del 07-02-2023 a las 18:00 UTC
Para mayor información visite www.meteochile.cl
METAR SCAS 071800Z 24012KT 9999 FEW020 BKN043 17/13 Q1015
Viento: dirección 240 grados, velocidad 12 nudos
Visibilidad: 10 km o más
Nubes: Escasa nubosidad a 2000 pies sobre el nivel del aeródromo
Nubes: Nublado a 4300 pies sobre el nivel del aeródromo
Temperatura: 17 °C
Rocío: 13 °C
Humedad_relativa: 77%
Presión: 1015 hPa
METAR del 07-02-2023 a las 17:00 UTC
Para mayor información visite www.meteochile.cl
METAR SCAS 071700Z 25014G24KT 9999 FEW020 BKN036 17/13 Q1015
Viento: dirección 250 grados, velocidad 14 nudos, con ráfagas de velocidad máxima de 24Nudos
Visibilidad: 10 km o más
Nubes: Escasa nubosidad a 2000 pies sobre el nivel del aeródromo
Nubes: Nublado a 3600 pies sobre el nivel del aeródromo
Temperatura: 17 °C
Rocío: 13 °C
Humedad_relativa: 77%
Presión: 1015 hPa
METAR del 07-02-2023 a las 16:00 UTC
Para mayor información visite www.meteochile.cl
METAR SCAS 071600Z 25011KT 9999 FEW015 BKN036 18/14 Q1015
Viento: dirección 250 grados, velocidad 11 nudos
Visibilidad: 10 km o más
Nubes: Escasa nubosidad a 1500 pies sobre el nivel del aeródromo
Nubes: Nublado a 3600 pies sobre el nivel del aeródromo
Temperatura: 18 °C
Rocío: 14 °C
Humedad_relativa: 77%
Presión: 1015 hPa
METAR del 07-02-2023 a las 15:00 UTC
Para mayor información visite www.meteochile.cl
METAR SCAS 071500Z 24006KT 9999 SCT015 BKN033 17/13 Q1015
Viento: dirección 240 grados, velocidad 6 nudos
Visibilidad: 10 km o más
Nubes: Nubosidad parcial a 1500 pies sobre el nivel del aeródromo
Nubes: Nublado a 3300 pies sobre el nivel del aeródromo
Temperatura: 17 °C
Rocío: 13 °C
Humedad_relativa: 77%
Presión: 1015 hPa
METAR del 07-02-2023 a las 14:00 UTC
Para mayor información visite www.meteochile.cl
METAR SCAS 071400Z 24006KT 9999 SCT010 BKN026 15/13 Q1016
Viento: dirección 240 grados, velocidad 6 nudos
Visibilidad: 10 km o más
Nubes: Nubosidad parcial a 1000 pies sobre el nivel del aeródromo
Nubes: Nublado a 2600 pies sobre el nivel del aeródromo
Temperatura: 15 °C
Rocío: 13 °C
Humedad_relativa: 88%
Presión: 1016 hPa
METAR del 07-02-2023 a las 13:00 UTC
Para mayor información visite www.meteochile.cl
METAR SCAS 071300Z 24005KT 9999 SCT010 OVC030 14/12 Q1016
Viento: dirección 240 grados, velocidad 5 nudos
Visibilidad: 10 km o más
Nubes: Nubosidad parcial a 1000 pies sobre el nivel del aeródromo
Nubes: Cubierto a 3000 pies sobre el nivel del aeródromo
Temperatura: 14 °C
Rocío: 12 °C
Humedad_relativa: 88%
Presión: 1016 hPa
METAR del 07-02-2023 a las 12:00 UTC
Para mayor información visite www.meteochile.cl
METAR SCAS 071200Z 00000KT 8000 -RA SCT010 OVC020 13/12 Q1016
Visibilidad: 8000 metros
Débil Lluvia
Nubes: Nubosidad parcial a 1000 pies sobre el nivel del aeródromo
Nubes: Cubierto a 2000 pies sobre el nivel del aeródromo
Temperatura: 13 °C
Rocío: 12 °C
Humedad_relativa: 94%
Presión: 1016 hPa
METAR del 06-02-2023 a las 20:00 UTC
Para mayor información visite www.meteochile.cl
METAR SCAS 062000Z 25017KT CAVOK 18/09 Q1017
Viento: dirección 250 grados, velocidad 17 nudos
Visibilidad: 10 km o más,
    sin nubes bajo los 5.000 pies o bajo del MSA (Mínimo de Seguridad del Aeródromo),
    sin cumulonimbus, y sin fenómenos de tiempo significativo en el aeródromo o alrededores
Temperatura: 18 °C
Rocío: 9 °C
Humedad_relativa: 56%
Presión: 1017 hPa